Time;durP1;ratioP1;P1;durP2;ratioP2;P2;SDS_P1;SDS_P2;PMS_P1;PMS_P2;Temp;Humidity;BMP_temperature;BMP_pressure;BME280_temperature;BME280_humidity;BME280_pressure;Samples;Min_cycle;Max_cycle;Signal;HPM_P1;HPM_P2
2022/01/11 00:02:01;;;;;;;;;;;;;;;0.89;72.31;101667.96;1693252;83;20150;-77
2022/01/11 00:04:29;;;;;;;;;;;;;;;0.61;73.25;101667.66;1693568;83;20399;-76
2022/01/11 00:06:55;;;;;;;;;;;;;;;0.58;73.64;101674.26;1694101;83;20229;-77
2022/01/11 00:11:49;;;;;;;;;;;;;;;0.17;75.40;101674.79;1704606;83;20151;-77
2022/01/11 00:14:14;;;;;;;;;;;;;;;0.26;75.35;101678.80;1693636;83;20292;-77
2022/01/11 00:16:40;;;;;;;;;;;;;;;0.31;75.13;101678.22;1713787;81;20834;-78
2022/01/11 00:19:06;;;;;;;;;;;;;;;0.41;74.85;101678.74;1711417;82;20158;-78
2022/01/11 00:21:39;;;;;;;;;;;;;;;0.17;75.39;101681.28;1694245;83;21042;-77
2022/01/11 00:24:48;;;;;;;;;;;;;;;0.32;74.89;101681.20;1685445;83;20135;-77
2022/01/11 00:26:30;;;;;;;;;;;;;;;0.33;75.08;101686.80;1663204;84;20191;-78
2022/01/11 00:28:56;;;;;;;;;;;;;;;0.60;74.07;101686.74;1689256;83;20123;-78
2022/01/11 00:31:21;;;;;;;;;;;;;;;0.70;73.36;101685.52;1676370;84;20484;-79
2022/01/11 00:33:48;;;;;;;;;;;;;;;0.86;72.70;101688.41;1693887;83;21199;-77
2022/01/11 00:36:14;;;;;;;;;;;;;;;0.94;72.34;101688.14;1677923;84;20166;-76
2022/01/11 00:38:40;;;;;;;;;;;;;;;0.93;72.07;101694.23;1692220;83;20275;-79
2022/01/11 00:47:14;;;;;;;;;;;;;;;0.65;72.46;101700.45;1646789;85;20265;-79
2022/01/11 00:49:40;;;;;;;;;;;;;;;0.90;71.82;101704.75;1646175;86;20265;-77
2022/01/11 00:52:06;;;;;;;;;;;;;;;0.96;71.55;101705.83;1646863;85;20503;-77
2022/01/11 00:54:32;;;;;;;;;;;;;;;0.92;71.64;101693.86;1648370;86;20948;-78
2022/01/11 00:56:58;;;;;;;;;;;;;;;0.98;71.30;101697.54;1646251;85;20150;-77
2022/01/11 00:59:24;;;;;;;;;;;;;;;0.98;71.23;101697.54;1645552;85;21078;-77
2022/01/11 01:01:49;;;;;;;;;;;;;;;0.97;71.15;101698.43;1646041;85;20363;-77
2022/01/11 01:04:15;;;;;;;;;;;;;;;0.94;71.30;101701.14;1645056;86;20166;-77
2022/01/11 01:06:42;;;;;;;;;;;;;;;0.94;71.18;101697.70;1646751;85;20180;-77
2022/01/11 01:09:08;;;;;;;;;;;;;;;0.95;71.13;101693.75;1672190;84;20148;-77
2022/01/11 01:11:33;;;;;;;;;;;;;;;0.92;71.18;101699.06;1676930;84;21186;-77
2022/01/11 01:13:59;;;;;;;;;;;;;;;0.91;71.19;101699.11;1676188;84;20477;-77
2022/01/11 01:16:24;;;;;;;;;;;;;;;0.91;71.11;101698.65;1676510;84;20198;-76
2022/01/11 01:18:50;;;;;;;;;;;;;;;0.81;71.49;101705.08;1678836;83;20155;-75
2022/01/11 01:21:16;;;;;;;;;;;;;;;0.81;71.50;101702.48;1694190;83;20610;-77
2022/01/11 01:23:42;;;;;;;;;;;;;;;0.78;71.65;101700.85;1696379;83;21316;-78
2022/01/11 01:26:07;;;;;;;;;;;;;;;0.79;71.72;101701.69;1695527;83;20724;-77
2022/01/11 01:28:33;;;;;;;;;;;;;;;0.66;71.93;101704.72;1703278;83;20200;-79
2022/01/11 01:31:02;;;;;;;;;;;;;;;0.76;71.84;101705.70;1706341;82;20135;-80
2022/01/11 01:33:28;;;;;;;;;;;;;;;0.80;71.77;101712.50;1725449;82;20204;-76
2022/01/11 01:36:00;;;;;;;;;;;;;;;0.68;72.04;101708.14;1719509;81;21120;-76
2022/01/11 01:38:24;;;;;;;;;;;;;;;0.69;72.01;101707.22;1694144;83;20139;-77
2022/01/11 01:40:50;;;;;;;;;;;;;;;0.60;72.48;101706.23;1705453;82;20147;-78
2022/01/11 01:43:16;;;;;;;;;;;;;;;0.64;72.33;101705.23;1711099;81;20298;-77
2022/01/11 01:45:44;;;;;;;;;;;;;;;0.75;72.04;101705.33;1717775;83;20166;-78
2022/01/11 01:48:11;;;;;;;;;;;;;;;0.56;72.59;101707.70;1705369;82;21112;-78
2022/01/11 01:50:37;;;;;;;;;;;;;;;0.49;72.87;101714.86;1711134;83;20461;-78
2022/01/11 01:53:04;;;;;;;;;;;;;;;0.37;73.57;101715.28;1722089;82;20447;-78
2022/01/11 01:55:29;;;;;;;;;;;;;;;0.49;73.09;101722.66;1719866;82;20174;-78
2022/01/11 01:57:55;;;;;;;;;;;;;;;0.42;73.20;101718.13;1701774;83;20136;-78
2022/01/11 02:00:22;;;;;;;;;;;;;;;0.41;73.43;101722.08;1707965;83;21157;-78
2022/01/11 02:02:48;;;;;;;;;;;;;;;0.44;73.25;101722.82;1722861;81;20513;-77
2022/01/11 02:05:13;;;;;;;;;;;;;;;0.34;73.48;101727.48;1712909;82;20205;-78
2022/01/11 02:07:39;;;;;;;;;;;;;;;-0.03;75.07;101734.34;1709763;83;20666;-78
2022/01/11 02:10:06;;;;;;;;;;;;;;;0.13;74.77;101733.39;1702923;83;20127;-78
2022/01/11 02:12:31;;;;;;;;;;;;;;;0.16;75.01;101745.81;1701537;82;21310;-79
2022/01/11 02:14:57;;;;;;;;;;;;;;;0.11;74.78;101743.83;1707075;83;20190;-79
2022/01/11 02:17:28;;;;;;;;;;;;;;;0.06;75.33;101743.56;1709847;81;20201;-78
2022/01/11 02:19:55;;;;;;;;;;;;;;;0.06;75.14;101746.16;1702089;83;20208;-78
2022/01/11 02:22:22;;;;;;;;;;;;;;;0.18;75.09;101741.87;1700260;84;20482;-78
2022/01/11 02:24:48;;;;;;;;;;;;;;;0.15;74.91;101749.77;1706957;83;21154;-77
2022/01/11 02:27:13;;;;;;;;;;;;;;;0.06;75.20;101747.45;1689041;83;20156;-78
2022/01/11 02:29:39;;;;;;;;;;;;;;;0.10;74.90;101743.88;1675982;84;20776;-78
2022/01/11 02:32:06;;;;;;;;;;;;;;;0.23;74.36;101755.55;1690048;83;20184;-77
2022/01/11 02:34:31;;;;;;;;;;;;;;;0.35;73.93;101755.61;1682051;84;20169;-78
2022/01/11 02:36:57;;;;;;;;;;;;;;;0.43;73.68;101751.00;1690387;84;21163;-78
2022/01/11 02:39:23;;;;;;;;;;;;;;;0.43;73.60;101754.05;1688537;84;20898;-78
2022/01/11 02:41:50;;;;;;;;;;;;;;;0.43;73.55;101751.45;1677713;84;20167;-78
2022/01/11 02:44:16;;;;;;;;;;;;;;;0.20;74.11;101750.45;1686940;84;20181;-78
2022/01/11 02:46:41;;;;;;;;;;;;;;;0.09;74.62;101753.86;1693152;83;20177;-79
2022/01/11 02:49:07;;;;;;;;;;;;;;;0.21;74.21;101758.66;1681693;84;21236;-79
2022/01/11 02:51:32;;;;;;;;;;;;;;;0.25;73.92;101758.97;1676228;84;20845;-78
2022/01/11 02:53:59;;;;;;;;;;;;;;;0.25;74.07;101761.56;1676483;84;20136;-78
2022/01/11 02:56:25;;;;;;;;;;;;;;;0.18;74.29;101768.69;1676381;84;20184;-78
2022/01/11 02:58:51;;;;;;;;;;;;;;;0.19;74.28;101769.55;1676373;84;20187;-77
2022/01/11 03:01:17;;;;;;;;;;;;;;;0.28;73.89;101766.66;1703148;83;21274;-78
2022/01/11 03:03:42;;;;;;;;;;;;;;;0.34;73.63;101762.56;1707095;84;20736;-78
2022/01/11 03:06:08;;;;;;;;;;;;;;;0.29;73.70;101763.14;1686580;84;20163;-78
2022/01/11 03:08:36;;;;;;;;;;;;;;;0.29;73.71;101768.34;1696504;84;20136;-78
2022/01/11 03:11:01;;;;;;;;;;;;;;;0.22;73.96;101762.97;1690489;83;20970;-77
2022/01/11 03:13:27;;;;;;;;;;;;;;;0.19;74.07;101772.16;1686713;84;21171;-78
2022/01/11 03:15:53;;;;;;;;;;;;;;;0.19;74.00;101769.55;1676467;84;20187;-79
2022/01/11 03:18:19;;;;;;;;;;;;;;;0.27;73.74;101777.94;1690705;83;20637;-79
2022/01/11 03:20:45;;;;;;;;;;;;;;;0.18;73.74;101770.44;1697046;81;20206;-78
2022/01/11 03:23:12;;;;;;;;;;;;;;;0.26;73.54;101777.53;1704597;83;20176;-77
2022/01/11 03:25:38;;;;;;;;;;;;;;;0.27;73.44;101777.94;1704097;83;22475;-79
2022/01/11 03:28:04;;;;;;;;;;;;;;;0.26;73.38;101777.53;1704549;83;20253;-78
2022/01/11 03:30:30;;;;;;;;;;;;;;;0.27;73.29;101778.41;1703794;81;20238;-77
2022/01/11 03:32:55;;;;;;;;;;;;;;;0.37;73.07;101784.14;1706427;83;20183;-78
2022/01/11 03:35:21;;;;;;;;;;;;;;;0.48;72.46;101783.33;1698449;83;20816;-78
2022/01/11 03:37:47;;;;;;;;;;;;;;;0.35;72.48;101781.13;1713666;83;21380;-77
2022/01/11 03:40:14;;;;;;;;;;;;;;;0.23;72.89;101784.12;1704093;83;20346;-78
2022/01/11 03:42:40;;;;;;;;;;;;;;;0.25;72.88;101783.65;1706735;83;20168;-80
2022/01/11 03:45:06;;;;;;;;;;;;;;;0.34;72.73;101788.98;1701406;81;20122;-78
2022/01/11 03:47:32;;;;;;;;;;;;;;;0.19;73.05;101785.14;1701141;83;20481;-80
2022/01/11 03:49:58;;;;;;;;;;;;;;;0.21;72.94;101785.94;1707288;81;21116;-78
2022/01/11 03:52:24;;;;;;;;;;;;;;;0.10;73.14;101790.63;1715024;83;20148;-78
2022/01/11 03:55:45;;;;;;;;;;;;;;;0.16;73.00;101782.64;1699319;82;20677;-78
2022/01/11 03:57:17;;;;;;;;;;;;;;;-0.03;73.32;101790.17;1690177;83;20175;-77
2022/01/11 03:59:43;;;;;;;;;;;;;;;0.04;73.24;101797.31;1698122;82;20256;-78
2022/01/11 04:02:09;;;;;;;;;;;;;;;-0.26;74.06;101794.76;1705041;83;21134;-78
2022/01/11 04:04:34;;;;;;;;;;;;;;;-0.34;74.47;101799.30;1706889;81;20211;-77
2022/01/11 04:07:00;;;;;;;;;;;;;;;-0.60;75.69;101800.47;1700007;83;20460;-77
2022/01/11 04:09:26;;;;;;;;;;;;;;;-0.62;76.04;101800.97;1705072;81;20195;-78
2022/01/11 04:11:51;;;;;;;;;;;;;;;-0.53;75.96;101818.45;1698990;83;20205;-80
2022/01/11 04:14:17;;;;;;;;;;;;;;;-0.66;76.47;101812.77;1711063;82;21087;-77
2022/01/11 04:16:43;;;;;;;;;;;;;;;-0.60;76.47;101816.49;1705257;83;20173;-77
2022/01/11 04:19:08;;;;;;;;;;;;;;;-0.53;76.23;101816.70;1705905;82;20181;-77
2022/01/11 04:21:34;;;;;;;;;;;;;;;-0.64;76.43;101813.56;1693714;83;20118;-77
2022/01/11 04:23:59;;;;;;;;;;;;;;;-0.56;76.35;101821.98;1695150;83;20965;-77
2022/01/11 04:26:25;;;;;;;;;;;;;;;-0.50;75.78;101816.62;1695317;83;21120;-77
2022/01/11 04:28:51;;;;;;;;;;;;;;;-0.48;76.06;101823.06;1694186;83;20122;-77
2022/01/11 04:31:16;;;;;;;;;;;;;;;-0.28;74.90;101816.00;1695415;83;20182;-77
2022/01/11 04:33:43;;;;;;;;;;;;;;;-0.13;74.30;101822.03;1692794;84;20237;-78
2022/01/11 04:36:09;;;;;;;;;;;;;;;-0.08;73.97;101818.88;1692696;84;20203;-77
2022/01/11 04:38:35;;;;;;;;;;;;;;;0.01;73.47;101822.92;1694600;84;21088;-78
2022/01/11 04:41:00;;;;;;;;;;;;;;;0.01;73.31;101828.11;1694098;84;20121;-78
2022/01/11 04:43:26;;;;;;;;;;;;;;;-0.02;73.16;101831.67;1694170;83;20170;-77
2022/01/11 04:45:52;;;;;;;;;;;;;;;0.05;72.87;101836.66;1696482;83;20095;-77
2022/01/11 04:48:18;;;;;;;;;;;;;;;0.06;72.69;101831.87;1696442;82;20138;-78
2022/01/11 04:50:45;;;;;;;;;;;;;;;0.07;72.52;101834.88;1693965;84;21055;-77
2022/01/11 04:53:11;;;;;;;;;;;;;;;0.05;72.39;101834.05;1693696;83;20203;-79
2022/01/11 04:55:36;;;;;;;;;;;;;;;0.09;72.40;101839.11;1694570;83;20272;-79
2022/01/11 04:58:02;;;;;;;;;;;;;;;0.13;72.28;101845.08;1695059;83;20138;-79
2022/01/11 05:00:28;;;;;;;;;;;;;;;-0.05;72.45;101844.75;1693155;83;20282;-79
2022/01/11 05:02:59;;;;;;;;;;;;;;;-0.12;72.60;101848.41;1693523;83;22065;-81
2022/01/11 05:05:26;;;;;;;;;;;;;;;-0.12;72.60;101852.31;1695872;83;20272;-78
2022/01/11 05:07:51;;;;;;;;;;;;;;;0.02;72.52;101845.83;1692933;84;20497;-80
2022/01/11 05:10:17;;;;;;;;;;;;;;;0.05;72.40;101845.31;1693972;83;20170;-79
2022/01/11 05:12:42;;;;;;;;;;;;;;;0.13;72.25;101855.47;1692855;84;20139;-78
2022/01/11 05:15:10;;;;;;;;;;;;;;;0.09;72.23;101853.86;1694722;84;22432;-79
2022/01/11 05:17:36;;;;;;;;;;;;;;;0.05;72.40;101852.23;1692902;83;20221;-81
2022/01/11 05:20:03;;;;;;;;;;;;;;;0.08;72.37;101846.95;1694351;84;20235;-81
2022/01/11 05:22:29;;;;;;;;;;;;;;;0.09;72.35;101847.36;1698907;83;20195;-78
2022/01/11 05:24:54;;;;;;;;;;;;;;;0.13;72.23;101850.28;1694137;83;20163;-77
2022/01/11 05:27:20;;;;;;;;;;;;;;;0.13;72.30;101837.29;1694864;83;21323;-77
2022/01/11 05:29:46;;;;;;;;;;;;;;;-0.06;72.70;101842.20;1708847;83;20144;-77
2022/01/11 05:32:11;;;;;;;;;;;;;;;-0.01;72.79;101837.25;1705249;82;20146;-77
2022/01/11 05:34:37;;;;;;;;;;;;;;;-0.22;73.49;101844.38;1712244;83;20134;-77
2022/01/11 05:37:03;;;;;;;;;;;;;;;-0.38;73.83;101840.92;1724042;82;20195;-80
2022/01/11 05:39:29;;;;;;;;;;;;;;;-0.44;74.25;101841.09;1711864;83;21085;-77
2022/01/11 05:41:54;;;;;;;;;;;;;;;-0.52;74.52;101849.55;1705327;81;21086;-77
2022/01/11 05:44:21;;;;;;;;;;;;;;;-0.92;75.95;101840.25;1706641;83;20871;-78
2022/01/11 05:46:46;;;;;;;;;;;;;;;-1.11;76.80;101843.32;1717342;82;20257;-80
2022/01/11 05:49:12;;;;;;;;;;;;;;;-1.30;77.70;101849.42;1704154;83;20872;-78
2022/01/11 05:51:37;;;;;;;;;;;;;;;-1.16;77.37;101847.78;1715568;83;22031;-77
2022/01/11 05:54:03;;;;;;;;;;;;;;;-1.30;78.03;101849.42;1703423;83;20150;-78
2022/01/11 05:56:28;;;;;;;;;;;;;;;-1.53;78.94;101853.02;1694731;82;20199;-80
2022/01/11 05:58:54;;;;;;;;;;;;;;;-1.41;78.96;101854.45;1714353;83;21294;-79
2022/01/11 06:01:20;;;;;;;;;;;;;;;-1.27;78.80;101858.88;1708414;83;20159;-78
2022/01/11 06:03:45;;;;;;;;;;;;;;;-1.07;78.06;101858.80;1698877;83;22179;-78
2022/01/11 06:06:11;;;;;;;;;;;;;;;-1.02;77.66;101864.73;1706195;82;20130;-81
2022/01/11 06:08:36;;;;;;;;;;;;;;;-0.92;77.33;101868.78;1717551;81;20147;-81
2022/01/11 06:11:03;;;;;;;;;;;;;;;-1.07;77.84;101874.35;1700751;83;20724;-79
2022/01/11 06:13:28;;;;;;;;;;;;;;;-1.23;78.55;101878.63;1705610;83;20192;-81
2022/01/11 06:15:54;;;;;;;;;;;;;;;-1.43;79.59;101886.03;1715254;83;21155;-77
2022/01/11 06:18:19;;;;;;;;;;;;;;;-1.61;80.83;101884.28;1702937;83;20967;-79
2022/01/11 06:20:45;;;;;;;;;;;;;;;-1.42;80.76;101889.88;1709209;81;20193;-79
2022/01/11 06:23:11;;;;;;;;;;;;;;;-1.41;80.82;101894.61;1710548;83;20170;-77
2022/01/11 06:25:36;;;;;;;;;;;;;;;-1.31;80.79;101898.70;1706312;81;20167;-79
2022/01/11 06:28:03;;;;;;;;;;;;;;;-1.40;81.00;101902.80;1711562;82;21349;-81
2022/01/11 06:30:28;;;;;;;;;;;;;;;-1.21;80.13;101904.08;1673955;83;20664;-80
2022/01/11 06:32:55;;;;;;;;;;;;;;;-1.05;79.56;101899.81;1706038;81;20430;-80
2022/01/11 06:35:22;;;;;;;;;;;;;;;-1.09;79.39;101902.48;1695751;83;20418;-77
2022/01/11 06:37:47;;;;;;;;;;;;;;;-1.47;80.28;101913.30;1708626;81;20188;-81
2022/01/11 06:40:14;;;;;;;;;;;;;;;-1.01;79.04;101914.39;1711788;83;21081;-78
2022/01/11 06:42:40;;;;;;;;;;;;;;;-0.85;78.61;101920.06;1722485;82;20141;-78
2022/01/11 06:45:06;;;;;;;;;;;;;;;-1.13;78.71;101925.47;1710381;83;20150;-78
2022/01/11 06:47:32;;;;;;;;;;;;;;;-1.21;78.78;101922.22;1693284;83;20186;-80
2022/01/11 06:49:57;;;;;;;;;;;;;;;-1.06;78.87;101925.33;1710517;83;20213;-77
2022/01/11 06:52:23;;;;;;;;;;;;;;;-0.91;78.40;101929.68;1711096;82;20619;-79
2022/01/11 06:54:48;;;;;;;;;;;;;;;-0.92;77.98;101934.91;1695087;81;20179;-79
2022/01/11 06:57:14;;;;;;;;;;;;;;;-0.80;77.48;101945.43;1696208;83;20193;-78
2022/01/11 06:59:39;;;;;;;;;;;;;;;-0.86;77.30;101946.42;1705326;83;20455;-78
2022/01/11 07:02:06;;;;;;;;;;;;;;;-0.79;77.25;101952.33;1710556;82;20136;-77
2022/01/11 07:04:32;;;;;;;;;;;;;;;-0.67;76.79;101957.64;1706400;83;21196;-82
2022/01/11 07:06:58;;;;;;;;;;;;;;;-0.68;76.51;101957.22;1704755;81;20196;-80
2022/01/11 07:09:23;;;;;;;;;;;;;;;-0.94;76.59;101967.36;1711162;83;20189;-77
2022/01/11 07:11:49;;;;;;;;;;;;;;;-1.01;76.67;101977.48;1700176;83;20122;-77
2022/01/11 07:14:15;;;;;;;;;;;;;;;-1.36;76.89;101993.84;1713169;83;20445;-78
2022/01/11 07:16:42;;;;;;;;;;;;;;;-1.34;77.15;101990.77;1698656;83;21136;-78
2022/01/11 07:19:07;;;;;;;;;;;;;;;-1.37;77.02;101996.02;1706614;83;20134;-77
2022/01/11 07:21:36;;;;;;;;;;;;;;;-1.35;76.71;101994.23;1698806;83;20126;-80
2022/01/11 07:24:02;;;;;;;;;;;;;;;-1.26;76.22;102006.99;1715972;82;20191;-80
2022/01/11 07:26:28;;;;;;;;;;;;;;;-1.45;75.77;102007.39;1714515;83;20194;-76
2022/01/11 07:28:53;;;;;;;;;;;;;;;-2.00;77.59;102014.56;1707759;83;21944;-75
2022/01/11 07:31:19;;;;;;;;;;;;;;;-1.67;77.32;102017.81;1721670;82;20152;-74
2022/01/11 07:33:44;;;;;;;;;;;;;;;-1.43;76.40;102020.77;1717134;82;20158;-77
2022/01/11 07:36:10;;;;;;;;;;;;;;;-1.39;75.84;102030.19;1698469;83;20119;-82
2022/01/11 07:38:35;;;;;;;;;;;;;;;-1.38;75.73;102027.56;1701705;83;20515;-77
2022/01/11 07:41:01;;;;;;;;;;;;;;;-1.46;75.65;102030.32;1723651;82;21156;-77
2022/01/11 07:43:26;;;;;;;;;;;;;;;-1.63;76.30;102033.71;1707158;82;21254;-79
2022/01/11 07:45:52;;;;;;;;;;;;;;;-1.61;76.32;102034.52;1720503;82;20608;-78
2022/01/11 07:48:18;;;;;;;;;;;;;;;-1.98;77.75;102036.53;1692781;83;20182;-77
2022/01/11 07:50:43;;;;;;;;;;;;;;;-1.68;77.56;102039.41;1693599;83;20440;-77
2022/01/11 07:53:09;;;;;;;;;;;;;;;-1.71;77.94;102038.17;1693792;83;21081;-77
2022/01/11 07:55:34;;;;;;;;;;;;;;;-1.72;78.07;102039.08;1701198;82;21210;-76
2022/01/11 07:58:00;;;;;;;;;;;;;;;-1.49;77.68;102032.98;1703120;82;20149;-79
2022/01/11 08:00:26;;;;;;;;;;;;;;;-1.47;77.71;102028.61;1716220;82;20122;-77
2022/01/11 08:02:51;;;;;;;;;;;;;;;-1.38;77.77;102031.45;1711104;82;20495;-77
2022/01/11 08:05:18;;;;;;;;;;;;;;;-1.28;77.66;102026.92;1721567;82;21207;-77
2022/01/11 08:07:44;;;;;;;;;;;;;;;-1.30;77.67;102027.41;1704077;82;20188;-78
2022/01/11 08:10:11;;;;;;;;;;;;;;;-1.35;78.18;102027.92;1693424;83;20268;-77
2022/01/11 08:12:38;;;;;;;;;;;;;;;-1.20;78.09;102034.07;1697284;83;20176;-77
2022/01/11 08:15:04;;;;;;;;;;;;;;;-1.12;77.97;102033.48;1723939;82;20216;-77
2022/01/11 08:17:31;;;;;;;;;;;;;;;-0.93;77.74;102023.53;1695499;83;21207;-79
2022/01/11 08:19:57;;;;;;;;;;;;;;;-0.94;78.04;102027.45;1707316;82;20477;-77
2022/01/11 08:22:22;;;;;;;;;;;;;;;-1.04;78.79;102028.12;1705581;82;20183;-77
2022/01/11 08:24:48;;;;;;;;;;;;;;;-1.29;80.42;102032.97;1701963;83;20449;-77
2022/01/11 08:27:14;;;;;;;;;;;;;;;-1.30;80.78;102031.30;1706221;81;20152;-79
2022/01/11 08:29:39;;;;;;;;;;;;;;;-1.34;81.07;102027.05;1710417;82;21110;-77
2022/01/11 08:32:07;;;;;;;;;;;;;;;-1.21;81.14;102025.91;1698305;83;20179;-76
2022/01/11 08:34:32;;;;;;;;;;;;;;;-1.15;81.15;102036.14;1702529;83;20202;-79
2022/01/11 08:36:59;;;;;;;;;;;;;;;-0.89;80.54;102026.89;1718618;81;20243;-78
2022/01/11 08:39:25;;;;;;;;;;;;;;;-0.79;79.95;102028.39;1700827;83;20199;-76
2022/01/11 08:41:51;;;;;;;;;;;;;;;-0.75;79.74;102026.57;1698374;83;21080;-78
2022/01/11 08:44:19;;;;;;;;;;;;;;;-0.80;80.35;102034.46;1704750;83;20453;-76
2022/01/11 08:46:44;;;;;;;;;;;;;;;-0.94;81.07;102035.23;1702853;81;20126;-78
2022/01/11 08:49:10;;;;;;;;;;;;;;;-0.62;80.40;102034.48;1703854;81;20183;-78
2022/01/11 08:51:36;;;;;;;;;;;;;;;-0.58;79.75;102041.73;1697673;83;20203;-77
2022/01/11 08:54:01;;;;;;;;;;;;;;;-0.55;79.89;102049.44;1705198;83;21393;-77
2022/01/11 08:56:27;;;;;;;;;;;;;;;-0.70;79.50;102049.81;1698433;81;20166;-77
2022/01/11 08:58:52;;;;;;;;;;;;;;;-0.77;80.15;102051.25;1708636;83;21045;-77
2022/01/11 09:01:18;;;;;;;;;;;;;;;-0.79;80.58;102058.68;1695294;83;20134;-78
2022/01/11 09:03:44;;;;;;;;;;;;;;;-0.70;80.38;102055.00;1699622;81;20483;-78
2022/01/11 09:06:09;;;;;;;;;;;;;;;-0.92;80.85;102064.15;1705242;83;21257;-81
2022/01/11 09:08:36;;;;;;;;;;;;;;;-0.93;81.48;102061.59;1698100;81;20149;-77
2022/01/11 09:11:04;;;;;;;;;;;;;;;-0.77;81.20;102060.33;1704944;83;20222;-80
2022/01/11 09:13:29;;;;;;;;;;;;;;;-0.49;80.88;102054.48;1704462;81;20265;-78
2022/01/11 09:15:55;;;;;;;;;;;;;;;-0.67;80.48;102056.22;1704425;83;20144;-78
2022/01/11 09:18:21;;;;;;;;;;;;;;;-0.38;80.04;102051.63;1708505;81;21233;-77
2022/01/11 09:20:47;;;;;;;;;;;;;;;-0.34;79.61;102057.58;1704636;83;20185;-77
2022/01/11 09:23:13;;;;;;;;;;;;;;;-0.13;79.16;102051.00;1707281;83;20175;-80
2022/01/11 09:25:38;;;;;;;;;;;;;;;0.03;78.88;102051.43;1702939;81;20439;-79
2022/01/11 09:28:04;;;;;;;;;;;;;;;0.17;78.31;102050.17;1697865;83;20178;-78
2022/01/11 09:30:29;;;;;;;;;;;;;;;0.26;78.04;102048.20;1699821;83;21074;-77
2022/01/11 09:32:55;;;;;;;;;;;;;;;0.30;77.68;102042.04;1704423;83;20348;-77
2022/01/11 09:35:21;;;;;;;;;;;;;;;0.34;77.19;102047.11;1700023;83;20134;-77
2022/01/11 09:37:46;;;;;;;;;;;;;;;0.44;76.86;102044.25;1696701;83;20174;-78
2022/01/11 09:40:12;;;;;;;;;;;;;;;0.34;76.79;102039.31;1699909;83;20134;-78
2022/01/11 09:42:38;;;;;;;;;;;;;;;0.47;76.77;102038.50;1702701;83;21100;-79
2022/01/11 09:45:05;;;;;;;;;;;;;;;0.55;76.36;102036.98;1697627;83;20174;-77
2022/01/11 09:47:30;;;;;;;;;;;;;;;0.61;76.04;102036.80;1698969;83;20559;-79
2022/01/11 09:49:56;;;;;;;;;;;;;;;0.76;76.01;102035.48;1708009;83;20138;-78
2022/01/11 09:52:24;;;;;;;;;;;;;;;0.79;75.93;102039.75;1709048;83;20155;-81
2022/01/11 09:54:50;;;;;;;;;;;;;;;0.60;75.80;102040.30;1687961;81;21106;-80
2022/01/11 09:57:15;;;;;;;;;;;;;;;0.57;76.08;102043.44;1703786;83;20491;-78
2022/01/11 09:59:41;;;;;;;;;;;;;;;0.61;76.40;102039.86;1699106;82;20209;-81
2022/01/11 10:02:07;;;;;;;;;;;;;;;0.71;76.41;102039.98;1703943;83;20138;-78
2022/01/11 10:04:34;;;;;;;;;;;;;;;0.65;76.08;102043.63;1705292;81;20114;-77
2022/01/11 10:07:02;;;;;;;;;;;;;;;0.62;76.33;102043.72;1707414;83;21065;-76
2022/01/11 10:09:29;;;;;;;;;;;;;;;0.73;76.38;102043.41;1704592;83;20126;-79
2022/01/11 10:11:57;;;;;;;;;;;;;;;0.80;76.17;102040.16;1704313;81;20167;-79
2022/01/11 10:14:34;;;;;;;;;;;;;;;0.94;75.69;102032.78;1704448;82;20214;-79
2022/01/11 10:17:19;;;;;;;;;;;;;;;1.15;75.43;102039.50;1701425;83;20592;-79
2022/01/11 10:19:51;;;;;;;;;;;;;;;1.28;75.10;102038.22;1697570;81;21229;-80
2022/01/11 10:22:20;;;;;;;;;;;;;;;1.48;74.87;102039.34;1700233;83;20197;-76
2022/01/11 10:24:47;;;;;;;;;;;;;;;1.00;74.98;102036.48;1718833;82;20140;-77
2022/01/11 10:27:23;;;;;;;;;;;;;;;0.85;75.92;102039.56;1713240;82;20171;-79
2022/01/11 10:29:51;;;;;;;;;;;;;;;0.76;76.27;102040.68;1720874;82;21073;-82
2022/01/11 10:32:32;;;;;;;;;;;;;;;0.57;77.09;102040.37;1720987;82;21283;-78
2022/01/11 10:35:00;;;;;;;;;;;;;;;0.95;76.43;102038.39;1719728;82;20424;-78
2022/01/11 10:37:39;;;;;;;;;;;;;;;0.92;75.78;102038.48;1707963;83;20190;-79
2022/01/11 10:40:08;;;;;;;;;;;;;;;0.97;75.94;102039.19;1724013;81;20188;-80
2022/01/11 10:42:38;;;;;;;;;;;;;;;1.05;76.11;102031.98;1717494;82;20235;-78
2022/01/11 10:45:04;;;;;;;;;;;;;;;1.21;75.40;102035.41;1711729;83;20484;-78
2022/01/11 10:47:33;;;;;;;;;;;;;;;1.22;75.29;102033.21;1715174;82;20227;-77
2022/01/11 10:50:02;;;;;;;;;;;;;;;1.11;75.46;102030.95;1696009;82;20197;-77
2022/01/11 10:52:31;;;;;;;;;;;;;;;1.19;75.60;102037.22;1693841;83;39039;-79
2022/01/11 10:54:57;;;;;;;;;;;;;;;1.33;75.35;102036.31;1700938;83;20172;-80
2022/01/11 10:57:29;;;;;;;;;;;;;;;1.35;75.25;102038.86;1697560;82;21061;-79
2022/01/11 11:00:22;;;;;;;;;;;;;;;1.02;76.03;102046.39;1710964;83;20207;-79
2022/01/11 11:02:52;;;;;;;;;;;;;;;1.13;76.06;102043.45;1719760;82;20276;-76
2022/01/11 11:05:20;;;;;;;;;;;;;;;1.17;75.94;102045.53;1717051;83;20200;-77
2022/01/11 11:08:07;;;;;;;;;;;;;;;1.21;75.91;102042.78;1693348;83;20213;-77
2022/01/11 11:10:41;;;;;;;;;;;;;;;1.19;76.00;102042.42;1706015;83;21290;-77
2022/01/11 11:13:08;;;;;;;;;;;;;;;0.99;76.53;102050.39;1696486;83;20186;-77
2022/01/11 11:15:37;;;;;;;;;;;;;;;1.13;76.40;102042.15;1724945;82;20212;-79
2022/01/11 11:18:03;;;;;;;;;;;;;;;1.13;76.65;102042.15;1700886;82;20206;-80
2022/01/11 11:20:30;;;;;;;;;;;;;;;1.18;76.60;102044.61;1694026;83;20184;-76
2022/01/11 11:22:56;;;;;;;;;;;;;;;1.24;76.58;102040.52;1697560;82;21235;-78
2022/01/11 11:25:21;;;;;;;;;;;;;;;1.18;76.88;102050.69;1703187;83;20142;-80
2022/01/11 11:27:47;;;;;;;;;;;;;;;1.23;76.70;102053.14;1704349;83;20762;-78
2022/01/11 11:30:13;;;;;;;;;;;;;;;1.19;76.97;102058.03;1698313;83;20220;-78
2022/01/11 11:32:38;;;;;;;;;;;;;;;1.23;76.96;102064.86;1709818;81;20215;-76
2022/01/11 11:35:05;;;;;;;;;;;;;;;1.09;77.30;102057.48;1702044;83;21149;-78
2022/01/11 11:37:33;;;;;;;;;;;;;;;1.08;77.57;102055.30;1704470;83;20487;-77
2022/01/11 11:40:00;;;;;;;;;;;;;;;1.11;77.92;102050.47;1699910;83;20472;-80
2022/01/11 11:42:26;;;;;;;;;;;;;;;0.88;78.89;102055.08;1699357;83;20279;-77
2022/01/11 11:44:52;;;;;;;;;;;;;;;0.79;79.19;102048.84;1691851;83;20180;-79
2022/01/11 11:47:30;;;;;;;;;;;;;;;0.84;79.07;102052.16;1705016;82;21345;-77
2022/01/11 11:49:56;;;;;;;;;;;;;;;0.75;79.43;102058.50;1701097;83;20313;-77
2022/01/11 11:52:35;;;;;;;;;;;;;;;0.83;79.51;102051.77;1701190;83;20769;-79
2022/01/11 11:55:06;;;;;;;;;;;;;;;0.90;79.62;102053.27;1704147;81;20174;-75
2022/01/11 11:57:33;;;;;;;;;;;;;;;0.77;80.33;102057.16;1706921;83;20218;-76
2022/01/11 12:00:03;;;;;;;;;;;;;;;0.76;80.07;102056.73;1708700;81;20927;-80
2022/01/11 12:02:39;;;;;;;;;;;;;;;0.66;80.92;102055.71;1702047;83;20192;-78
2022/01/11 12:05:12;;;;;;;;;;;;;;;0.70;80.86;102056.49;1683827;83;20194;-77
2022/01/11 12:07:47;;;;;;;;;;;;;;;0.80;80.76;102061.80;1712968;83;20187;-77
2022/01/11 12:10:15;;;;;;;;;;;;;;;0.76;80.72;102051.54;1703863;83;20129;-80
2022/01/11 12:12:40;;;;;;;;;;;;;;;0.80;81.04;102054.46;1691909;83;20622;-76
2022/01/11 12:15:32;;;;;;;;;;;;;;;0.79;81.19;102057.95;1698842;83;20515;-78
2022/01/11 12:18:02;;;;;;;;;;;;;;;0.83;81.27;102055.67;1700986;83;20223;-78
2022/01/11 12:20:43;;;;;;;;;;;;;;;0.86;81.23;102051.67;1707720;83;20999;-77
2022/01/11 12:23:10;;;;;;;;;;;;;;;0.98;80.72;102051.30;1702544;81;20151;-77
2022/01/11 12:25:43;;;;;;;;;;;;;;;0.98;80.91;102053.91;1707653;83;21195;-77
2022/01/11 12:28:06;;;;;;;;;;;;;;;1.03;80.98;102054.61;1696510;83;20189;-77
2022/01/11 12:30:32;;;;;;;;;;;;;;;1.00;80.82;102057.30;1702424;83;20183;-77
2022/01/11 12:33:16;;;;;;;;;;;;;;;1.29;80.47;102054.25;1702348;83;20185;-78
2022/01/11 12:36:03;;;;;;;;;;;;;;;1.52;79.63;102056.54;1706965;83;20350;-77
2022/01/11 12:38:33;;;;;;;;;;;;;;;1.50;79.37;102053.14;1709936;81;21068;-76
2022/01/11 12:40:58;;;;;;;;;;;;;;;1.54;79.32;102049.52;1700832;83;20127;-78
2022/01/11 12:43:40;;;;;;;;;;;;;;;1.72;78.78;102055.41;1704286;83;20168;-77
2022/01/11 12:46:07;;;;;;;;;;;;;;;1.65;78.74;102056.55;1703835;83;20153;-77
2022/01/11 12:48:57;;;;;;;;;;;;;;;1.88;77.45;102052.29;1702697;81;20191;-78
2022/01/11 12:51:37;;;;;;;;;;;;;;;1.87;77.24;102052.75;1708483;81;21048;-76